Flight Track Log - Related Links

Times and Time Zones

All times are in EST time to prevent confusion due to time zone crossing. See the FLG4262 flight status page for this flight to view local times or setup timezone preferences in your user account.


Time Position Orientation Groundspeed Altitude Reporting Facility
EST Latitude Longitude Course Direction KTS MPH feet Rate Location/Type
Sun 06:25:42 PM 42.1639 -75.9719 299° West 196 226 3,900  Level Cleveland Center
Sun 06:26:15 PM 42.1594 -76.0161 262° West 134 154 5,500 2,323 Climbing New York Center
Sun 06:27:15 PM 42.1761 -76.1097 284° West 178 205 7,500 2,350 Climbing New York Center
Sun 06:28:15 PM 42.2053 -76.1989 294° West 221 254 10,200 1,922 Climbing New York Center
Sun 06:29:00 PM 42.2315 -76.7714 289° West  Level Estimated
Sun 06:29:48 PM 42.2592 -76.3700 293° West 310 357 12,400  Level Cleveland Center
Sun 06:30:00 PM 42.2349 -76.9034 299° West  Level Estimated
Sun 06:30:50 PM 42.2939 -76.4861 292° West 331 381 14,200  Level Cleveland Center
Sun 06:31:52 PM 42.3281 -76.5944 293° West 331 381 16,000 1,610 Climbing Cleveland Center
Sun 06:32:53 PM 42.3622 -76.7103 292° West 333 383 17,500 1,317 Climbing Cleveland Center
Sun 06:33:55 PM 42.3978 -76.8278 292° West 338 389 18,700 1,463 Climbing Cleveland Center
Sun 06:34:56 PM 42.4400 -76.9697 292° West 340 391 20,500 1,463 Climbing Cleveland Center
Sun 06:35:58 PM 42.4761 -77.0861 293° West 339 390 21,700 1,073 Climbing Cleveland Center
Sun 06:36:59 PM 42.5108 -77.2036 292° West 336 387 22,700 976 Climbing Cleveland Center
Sun 06:38:01 PM 42.5469 -77.3242 292° West 345 397 23,700 634 Climbing Cleveland Center
Sun 06:39:02 PM 42.5850 -77.4547 292° West 350 403 24,000 146 Climbing Cleveland Center
Sun 06:40:04 PM 42.6236 -77.5850 292° West 366 421 24,000  Level Cleveland Center
Sun 06:41:05 PM 42.6631 -77.7239 291° West 384 442 24,000  Level Cleveland Center
Sun 06:42:07 PM 42.7081 -77.8744 292° West 409 471 24,000  Level Cleveland Center
Sun 06:43:08 PM 42.7492 -78.0192 291° West 412 474 24,000  Level Cleveland Center
Sun 06:44:10 PM 42.7894 -78.1611 291° West 405 466 24,000  Level Cleveland Center
Sun 06:45:11 PM 42.8297 -78.3025 291° West 403 464 24,000  Level Cleveland Center
Sun 06:46:13 PM 42.8703 -78.4439 291° West 402 463 24,000  Level Cleveland Center
Sun 06:47:14 PM 42.9100 -78.5864 291° West 404 465 24,000  Level Cleveland Center
Sun 06:48:16 PM 42.9636 -78.7517 294° West 399 459 24,000  Level Cleveland Center
Sun 06:49:17 PM 43.0089 -78.8789 296° West 376 433 24,000  Level Cleveland Center
Sun 06:50:04 PM 43.0333 -78.9667 291° West 380 437 24,000  Level Toronto Center
Sun 06:51:04 PM 43.0833 -79.0833 300° West 380 437 24,000  Level Toronto Center
Sun 06:52:04 PM 43.1333 -79.2167 297° West 390 449 24,000  Level Toronto Center
Sun 06:53:04 PM 43.1667 -79.3667 287° West 390 449 24,000  Level Toronto Center
Sun 06:54:04 PM 43.2000 -79.5000 289° West 390 449 24,000  Level Toronto Center
Sun 06:55:04 PM 43.2000 -79.6500 270° West 370 426 24,000  Level Toronto Center
Sun 06:56:04 PM 43.1833 -79.8000 261° West 370 426 24,000  Level Toronto Center
Sun 06:57:04 PM 43.1667 -79.9333 260° West 370 426 24,000  Level Toronto Center
Sun 06:58:04 PM 43.1667 -80.0667 270° West 370 426 24,000  Level Toronto Center
Sun 06:59:04 PM 43.1500 -80.2000 260° West 370 426 24,000  Level Toronto Center
Sun 07:00:04 PM 43.1500 -80.3333 270° West 370 426 24,000  Level Toronto Center
Sun 07:01:04 PM 43.1333 -80.4833 261° West 370 426 24,000  Level Toronto Center
Sun 07:02:04 PM 43.1167 -80.6333 261° West 370 426 24,000  Level Toronto Center
Sun 07:03:04 PM 43.1167 -80.7667 270° West 380 437 24,000  Level Toronto Center
Sun 07:04:04 PM 43.0833 -80.9167 253° West 380 437 24,000  Level Toronto Center
Sun 07:05:04 PM 43.0833 -81.0500 270° West 370 426 24,000  Level Toronto Center
Sun 07:06:04 PM 43.0667 -81.1833 260° West 370 426 24,000  Level Toronto Center
Sun 07:07:04 PM 43.0500 -81.3167 260° West 360 414 24,000  Level Toronto Center
Sun 07:08:04 PM 43.0500 -81.4500 270° West 370 426 24,000  Level Toronto Center
Sun 07:09:04 PM 43.0333 -81.6167 262° West 370 426 24,000  Level Toronto Center
Sun 07:10:04 PM 43.0333 -81.7500 270° West 370 426 24,000  Level Toronto Center
Sun 07:11:04 PM 43.0167 -81.8833 260° West 380 437 24,000  Level Toronto Center
Sun 07:12:04 PM 42.9833 -82.0333 253° West 380 437 24,000  Level Toronto Center
Sun 07:13:04 PM 42.9833 -82.1667 270° West 350 403 24,000  Level Toronto Center
Sun 07:14:04 PM 42.9667 -82.2833 259° West 320 368 24,000  Level Toronto Center
Sun 07:15:04 PM 42.9667 -82.3833 270° West 310 357 24,000 50 Level Toronto Center
Sun 07:16:04 PM 42.9500 -82.5333 261° West 320 368 24,100 -436 Climbing Toronto Center
Sun 07:16:54 PM 42.9517 -82.6267 271° West 320 368 23,200 -1,027 Descending Cleveland Center
Sun 07:17:55 PM 42.9533 -82.7503 271° West 333 383 22,200 -1,017 Descending Cleveland Center
Sun 07:18:52 PM 42.9653 -82.8822 277° West 346 398 21,200 -968 Descending Cleveland Center
Sun 07:18:57 PM 42.9656 -82.8808 75° East 347 399 21,200 -3,000 Level Cleveland Center
Sun 07:19:58 PM 42.9333 -82.9761 245° Southwest 295 339 17,900 -3,324 Descending Cleveland Center
Sun 07:20:11 PM 42.9094 -82.9858 197° South 285 328 17,100 -2,806 Descending Cleveland Center
Sun 07:21:00 PM 42.8558 -83.0039 194° South 290 334 15,000 -2,945 Descending Cleveland Center
Sun 07:21:06 PM 42.8408 -83.0078 191° South 291 335 14,400 -2,164 Descending Cleveland Center
Sun 07:22:01 PM 42.7789 -83.0189 188° South 280 322 12,800 -2,066 Descending Cleveland Center
Sun 07:22:07 PM 42.7625 -83.0200 183° South 251 289 12,300 -1,967 Descending Cleveland Center
Sun 07:23:02 PM 42.7097 -83.0253 184° South 252 290 10,800 -1,900 Descending Cleveland Center
Sun 07:23:07 PM 42.6928 -83.0275 186° South 245 282 10,400 -1,935 Descending Cleveland Center
Sun 07:24:04 PM 42.6439 -83.0300 182° South 240 276 8,800 -1,967 Descending Cleveland Center
Sun 07:24:08 PM 42.6275 -83.0328 187° South 252 290 8,400 -1,859 Descending Cleveland Center
Sun 07:25:15 PM 42.5658 -83.0753 207° Southwest 220 253 6,600 -1,220 Descending Cleveland Center
Sun 07:26:06 PM 42.5231 -83.1075 209° Southwest 218 251 6,000 -590 Descending Cleveland Center
Sun 07:26:16 PM 42.5125 -83.1133 202° Southwest 220 253 6,000  Level Cleveland Center
Sun 07:27:08 PM 42.4706 -83.1486 212° Southwest 219 252 6,000 -109 Level Cleveland Center
Sun 07:27:11 PM 42.4656 -83.1519 206° Southwest 204 235 5,900 -1,048 Descending Cleveland Center
Sun 07:28:11 PM 42.4211 -83.1856 209° Southwest 175 201 4,900 -950 Descending Cleveland Center
Sun 07:29:11 PM 42.3853 -83.2125 209° Southwest 170 196 4,000 -806 Descending Cleveland Center
Sun 07:29:18 PM 42.3767 -83.2189 209° Southwest 152 175 4,000 -393 Level Cleveland Center
Sun 07:30:12 PM 42.3486 -83.2394 208° Southwest 153 176 3,600 -655 Descending Cleveland Center
Sun 07:30:13 PM 42.3436 -83.2425 204° Southwest 163 188 3,400 -968 Descending Cleveland Center
Sun 07:31:14 PM 42.3133 -83.2806 223° Southwest 153 176 2,600 -750 Descending Cleveland Center
Sun 07:32:21 PM 42.2836 -83.3131 219° Southwest 108 124 1,800 -609 Descending Cleveland Center
Sun 07:33:22 PM 42.2550 -83.3317 206° Southwest 116 133 1,300 -410 Descending Cleveland Center
Sun 07:34:18 PM 42.2303 -83.3511 210° Southwest 120 138 1,000 -321 Descending Cleveland Center
Sun 07:36:00 PM 42.2124 -83.3534 217° Southwest  Level Estimated

Login

Don't have an account? Register now (free) for customized features, flight alerts, and more!